Gillette Campbell County Airport
KGCC : now visible

Airfield :











YOU CAN JOIN US ON...

 
LOGIN :

Register | Disclaimer

   EN    FR    IT 

 









Legend :    VFR   Marginal VFR   IFR   Intensive IFR   Very Intensive IFR
Visi :
Ceiling :
>= 8 km
>= 3000ft
5 to 8 km
1000 to 3000 ft
1500m to 5 km
500 to 1000 ft
800 to 1500m
200 to 500 ft
< 800m
< 200 ft
Symbols :   Thunderstorms  Fog  Heavy snow  Heavy precipitations  Wind > 20 kt






- Airport Elevation : 4365 ft


KGCC - Gillette Campbell County

CURRENT METAR :
  • 080553Z AUTO VRB05KT 10SM CLR M01/M07 A3001 RMK AO2 SLP180 T10061067 10028 21011 56013

EXPIRED METARs :
  • 080453Z AUTO 21014G21KT 10SM CLR M01/M06 A3002 RMK AO2 SLP185 T10061061
  • 080353Z AUTO 18012G22KT 10SM CLR 00/M06 A3004 RMK AO2 SLP195 T00001061

TAF KGCC
Valid from the 08 at 06:00 until the 09 at 06:00 UTC


080527Z 0806/0906 22011KT P6SM BKN100
FM081700 32014KT P6SM BKN060
FM082000 32020G30KT 3SM -SN SCT015 OVC025
FM090000 30025G35KT P6SM BKN040
KZDV FIR / North America



MET'MAP, your aeronautical weather chart ! - Copyright ORBIFLY December 2007 - Disclaimer

ORBIFLY MET'MAP TEAM :

Programming & Development : Alexandra Zaïnal
Original concept : Baudouin d'Aumeries
Technical & hardware support : Manuel Goepfert
Assistance : Marc-Olivier Méhu




SOURCES & CREDITS :

   NOAA       Earth
Advisory